createdAt,value
2023-04-17T00:01:49.351Z,96297.80
2023-04-17T00:04:18.534Z,96299.66
2023-04-17T00:06:46.993Z,96300.59
2023-04-17T00:09:15.237Z,96296.27
2023-04-17T00:11:43.239Z,96296.67
2023-04-17T00:16:44.377Z,96296.09
2023-04-17T00:19:13.096Z,96296.90
2023-04-17T00:21:41.463Z,96295.07
2023-04-17T00:24:09.552Z,96295.52
2023-04-17T00:26:37.496Z,96296.35
2023-04-17T00:29:05.781Z,96294.68
2023-04-17T00:31:33.780Z,96296.88
2023-04-17T00:34:02.029Z,96292.41
2023-04-17T00:36:32.040Z,96297.23
2023-04-17T00:39:00.117Z,96298.21
2023-04-17T00:41:28.404Z,96295.80
2023-04-17T00:43:56.584Z,96295.80
2023-04-17T00:46:25.406Z,96293.91
2023-04-17T00:53:59.311Z,96291.86
2023-04-17T00:56:27.681Z,96288.39
2023-04-17T00:58:56.870Z,96288.26
2023-04-17T01:01:25.012Z,96284.83
2023-04-17T01:03:53.554Z,96287.84
2023-04-17T01:06:21.914Z,96282.66
2023-04-17T01:08:49.888Z,96279.72
2023-04-17T01:11:18.156Z,96279.59
2023-04-17T01:13:50.172Z,96284.77
2023-04-17T01:16:19.832Z,96281.32
2023-04-17T01:18:48.825Z,96279.27
2023-04-17T01:21:16.958Z,96275.46
2023-04-17T01:23:45.683Z,96277.41
2023-04-17T01:26:17.667Z,96275.01
2023-04-17T01:28:51.686Z,96273.48
2023-04-17T01:31:21.284Z,96270.30
2023-04-17T01:33:49.841Z,96268.09
2023-04-17T01:36:18.235Z,96265.17
2023-04-17T01:38:46.188Z,96265.08
2023-04-17T01:41:14.136Z,96267.39
2023-04-17T01:43:44.104Z,96263.68
2023-04-17T01:46:12.698Z,96262.70
2023-04-17T01:48:40.950Z,96262.74
2023-04-17T01:51:10.029Z,96259.80
2023-04-17T01:53:39.244Z,96261.84
2023-04-17T01:56:07.416Z,96259.70
2023-04-17T01:58:36.209Z,96255.52
2023-04-17T02:01:04.765Z,96254.63
2023-04-17T02:03:33.424Z,96255.41
2023-04-17T02:06:01.959Z,96252.55
2023-04-17T02:08:30.072Z,96260.17
2023-04-17T02:11:00.045Z,96257.56
2023-04-17T02:13:28.628Z,96254.27
2023-04-17T02:15:58.025Z,96255.04
2023-04-17T02:18:30.494Z,96252.23
2023-04-17T02:21:01.547Z,96256.33
2023-04-17T02:23:29.827Z,96255.14
2023-04-17T02:25:58.119Z,96252.69
2023-04-17T02:28:26.369Z,96252.04
2023-04-17T02:30:54.588Z,96256.16
2023-04-17T02:33:22.926Z,96256.03
2023-04-17T02:35:51.705Z,96256.36
2023-04-17T02:38:23.413Z,96256.23
2023-04-17T02:40:51.657Z,96256.35
2023-04-17T02:43:19.709Z,96257.81
2023-04-17T02:45:47.884Z,96254.24
2023-04-17T02:48:16.354Z,96255.81
2023-04-17T02:50:44.453Z,96257.27
2023-04-17T02:53:16.915Z,96255.15
2023-04-17T02:55:44.853Z,96252.45
2023-04-17T02:58:13.470Z,96253.45
2023-04-17T03:00:41.698Z,96258.23
2023-04-17T03:03:13.445Z,96259.58
2023-04-17T03:05:42.021Z,96259.33
2023-04-17T03:08:10.811Z,96258.89
2023-04-17T03:10:48.988Z,96256.30
2023-04-17T03:13:17.063Z,96254.51
2023-04-17T03:15:45.339Z,96255.40
2023-04-17T03:18:13.415Z,96254.95
2023-04-17T03:20:41.484Z,96256.13
2023-04-17T03:23:09.763Z,96256.16
2023-04-17T03:25:38.134Z,96262.65
2023-04-17T03:28:06.507Z,96264.42
2023-04-17T03:30:34.913Z,96270.50
2023-04-17T03:33:06.619Z,96272.42
2023-04-17T03:35:35.138Z,96274.41
2023-04-17T03:38:06.490Z,96274.33
2023-04-17T03:40:34.962Z,96275.13
2023-04-17T03:43:03.173Z,96276.06
2023-04-17T03:45:31.926Z,96277.94
2023-04-17T03:48:00.047Z,96278.84
2023-04-17T03:50:28.588Z,96277.65
2023-04-17T03:52:57.779Z,96279.27
2023-04-17T03:55:27.571Z,96282.89
2023-04-17T03:57:55.976Z,96284.31
2023-04-17T04:00:24.971Z,96285.09
2023-04-17T04:02:56.594Z,96287.24
2023-04-17T04:05:28.252Z,96290.79
2023-04-17T04:07:56.950Z,96289.92
2023-04-17T04:10:33.219Z,96288.58
2023-04-17T04:13:01.411Z,96292.32
2023-04-17T04:15:29.765Z,96294.64
2023-04-17T04:18:00.747Z,96296.91
2023-04-17T04:20:29.096Z,96296.95
2023-04-17T04:23:06.896Z,96296.35
2023-04-17T04:25:36.800Z,96294.27
2023-04-17T04:28:17.943Z,96300.50
2023-04-17T04:30:50.902Z,96298.83
2023-04-17T04:33:20.859Z,96301.10
2023-04-17T04:35:51.408Z,96300.94
2023-04-17T04:38:20.212Z,96302.73
2023-04-17T04:40:50.260Z,96303.79
2023-04-17T04:43:20.799Z,96303.99
2023-04-17T04:45:52.127Z,96302.08
2023-04-17T04:48:20.977Z,96302.94
2023-04-17T04:50:49.273Z,96303.90
2023-04-17T04:53:18.062Z,96304.80
2023-04-17T04:55:51.758Z,96306.39
2023-04-17T04:58:20.148Z,96309.73
2023-04-17T05:00:48.755Z,96311.53
2023-04-17T05:03:23.812Z,96313.06
2023-04-17T05:05:52.450Z,96311.18
2023-04-17T05:08:21.513Z,96312.08
2023-04-17T05:10:57.202Z,96310.36
2023-04-17T05:13:25.784Z,96310.91
2023-04-17T05:15:54.605Z,96309.14
2023-04-17T05:18:25.620Z,96308.86
2023-04-17T05:20:53.678Z,96311.13
2023-04-17T05:23:23.184Z,96309.73
2023-04-17T05:25:51.898Z,96312.15
2023-04-17T05:28:20.362Z,96311.46
2023-04-17T05:30:50.163Z,96308.68
2023-04-17T05:33:22.651Z,96308.77
2023-04-17T05:35:56.969Z,96308.75
2023-04-17T05:38:25.450Z,96311.74
2023-04-17T05:40:54.149Z,96313.17
2023-04-17T05:43:22.098Z,96314.76
2023-04-17T05:45:50.225Z,96315.85
2023-04-17T05:48:18.337Z,96317.41
2023-04-17T05:50:47.548Z,96318.50
2023-04-17T05:53:15.815Z,96322.34
2023-04-17T05:55:49.214Z,96321.73
2023-04-17T05:58:23.611Z,96324.63
2023-04-17T06:00:52.552Z,96328.30
2023-04-17T06:03:21.427Z,96328.42
2023-04-17T06:05:53.309Z,96324.46
2023-04-17T06:08:21.753Z,96324.80
2023-04-17T06:10:51.160Z,96327.64
2023-04-17T06:13:19.138Z,96330.67
2023-04-17T06:15:50.687Z,96329.24
2023-04-17T06:18:18.770Z,96331.12
2023-04-17T06:20:47.041Z,96332.23
2023-04-17T06:23:15.311Z,96334.16
2023-04-17T06:25:43.411Z,96338.36
2023-04-17T06:28:11.576Z,96340.98
2023-04-17T06:30:39.790Z,96341.10
2023-04-17T06:33:08.582Z,96342.65
2023-04-17T06:35:37.872Z,96342.25
2023-04-17T06:38:32.132Z,96345.21
2023-04-17T06:41:00.565Z,96342.57
2023-04-17T06:43:28.459Z,96344.82
2023-04-17T06:45:56.605Z,96342.08
2023-04-17T06:48:24.803Z,96345.83
2023-04-17T06:50:52.877Z,96343.65
2023-04-17T06:53:21.769Z,96343.67
2023-04-17T06:55:49.830Z,96345.55
2023-04-17T06:58:17.912Z,96342.27
2023-04-17T07:00:45.980Z,96339.83
2023-04-17T07:03:15.004Z,96341.63
2023-04-17T07:05:44.379Z,96340.17
2023-04-17T07:08:12.339Z,96341.28
2023-04-17T07:10:40.267Z,96343.05
2023-04-17T07:13:08.293Z,96342.90
2023-04-17T07:15:36.394Z,96343.77
2023-04-17T07:18:04.708Z,96345.92
2023-04-17T07:20:32.780Z,96347.45
2023-04-17T07:23:00.990Z,96351.39
2023-04-17T07:25:29.249Z,96348.79
2023-04-17T07:27:57.258Z,96349.26
2023-04-17T07:30:27.244Z,96350.16
2023-04-17T07:32:55.564Z,96354.27
2023-04-17T07:35:23.803Z,96350.09
2023-04-17T07:37:52.180Z,96351.05
2023-04-17T07:40:20.260Z,96350.63
2023-04-17T07:42:48.319Z,96350.69
2023-04-17T07:45:16.498Z,96349.24
2023-04-17T07:47:44.425Z,96347.72
2023-04-17T07:50:12.431Z,96353.51
2023-04-17T07:52:40.707Z,96354.71
2023-04-17T07:55:09.285Z,96354.64
2023-04-17T07:57:37.367Z,96354.25
2023-04-17T08:00:08.164Z,96352.33
2023-04-17T08:02:41.749Z,96355.20
2023-04-17T08:05:10.373Z,96356.54
2023-04-17T08:07:38.868Z,96358.59
2023-04-17T08:10:07.666Z,96357.70
2023-04-17T08:12:35.719Z,96358.23
2023-04-17T08:15:04.442Z,96360.41
2023-04-17T08:17:33.399Z,96361.81
2023-04-17T08:20:12.247Z,96362.10
2023-04-17T08:22:41.248Z,96362.75
2023-04-17T08:25:09.608Z,96365.08
2023-04-17T08:27:38.685Z,96367.45
2023-04-17T08:30:10.559Z,96366.69
2023-04-17T08:32:47.595Z,96368.61
2023-04-17T08:35:15.787Z,96369.71
2023-04-17T08:48:01.837Z,96370.28
2023-04-17T08:50:29.944Z,96372.13
2023-04-17T08:52:57.917Z,96370.62
2023-04-17T08:55:29.170Z,96372.66
2023-04-17T08:57:57.743Z,96373.11
2023-04-17T09:00:32.758Z,96370.23
2023-04-17T09:03:03.653Z,96368.42
2023-04-17T09:05:35.337Z,96370.27
2023-04-17T09:08:09.489Z,96369.91
2023-04-17T09:10:50.727Z,96367.52
2023-04-17T09:13:24.979Z,96362.48
2023-04-17T09:16:09.946Z,96362.58
2023-04-17T09:18:38.343Z,96360.08
2023-04-17T09:21:07.144Z,96357.89
2023-04-17T09:23:52.439Z,96360.99
2023-04-17T09:26:22.487Z,96358.13
2023-04-17T09:29:04.225Z,96358.22
2023-04-17T09:31:34.682Z,96360.06
2023-04-17T09:34:03.139Z,96361.09
2023-04-17T09:36:33.121Z,96357.98
2023-04-17T09:39:03.881Z,96356.36
2023-04-17T09:41:33.182Z,96355.43
2023-04-17T09:44:02.205Z,96356.02
2023-04-17T09:46:31.091Z,96353.23
2023-04-17T09:49:07.740Z,96354.41
2023-04-17T09:51:35.690Z,96354.30
2023-04-17T09:54:07.180Z,96352.30
2023-04-17T09:56:36.370Z,96345.13
2023-04-17T09:59:05.419Z,96343.98
2023-04-17T10:01:34.138Z,96341.98
2023-04-17T10:04:03.426Z,96344.48
2023-04-17T10:06:32.212Z,96337.73
2023-04-17T10:09:00.652Z,96336.80
2023-04-17T10:11:31.481Z,96332.40
2023-04-17T10:14:19.684Z,96329.91
2023-04-17T10:16:48.788Z,96324.31
2023-04-17T10:19:33.533Z,96323.59
2023-04-17T10:22:19.980Z,96325.36
2023-04-17T10:24:49.344Z,96326.52
2023-04-17T10:27:26.836Z,96324.41
2023-04-17T10:29:56.232Z,96317.16
2023-04-17T10:40:32.588Z,96311.50
2023-04-17T10:43:06.570Z,96309.10
2023-04-17T10:45:53.649Z,96306.48
2023-04-17T10:48:33.338Z,96311.79
2023-04-17T10:51:02.734Z,96308.64
2023-04-17T10:53:45.550Z,96306.89
2023-04-17T10:56:18.430Z,96299.73
2023-04-17T10:59:06.860Z,96302.68
2023-04-17T11:01:39.932Z,96300.52
2023-04-17T11:04:08.507Z,96299.58
2023-04-17T11:06:42.264Z,96298.20
2023-04-17T11:09:11.422Z,96300.17
2023-04-17T11:11:44.982Z,96298.14
2023-04-17T11:14:15.696Z,96299.81
2023-04-17T11:16:44.835Z,96296.84
2023-04-17T11:19:23.629Z,96294.56
2023-04-17T11:21:53.771Z,96292.04
2023-04-17T11:24:28.624Z,96291.43
2023-04-17T11:27:00.014Z,96281.98
2023-04-17T11:29:28.496Z,96281.20
2023-04-17T11:31:57.077Z,96277.25
2023-04-17T11:34:25.774Z,96276.80
2023-04-17T11:36:54.544Z,96274.68
2023-04-17T11:39:26.872Z,96275.13
2023-04-17T11:41:57.229Z,96269.48
2023-04-17T11:44:25.570Z,96264.17
2023-04-17T11:46:54.834Z,96257.55
2023-04-17T11:49:27.567Z,96259.09
2023-04-17T11:51:58.811Z,96259.15
2023-04-17T11:54:28.021Z,96254.80
2023-04-17T11:57:01.474Z,96253.42
2023-04-17T11:59:31.480Z,96254.36
2023-04-17T12:02:00.919Z,96250.55
2023-04-17T12:12:14.498Z,96234.77
2023-04-17T12:14:42.534Z,96233.27
2023-04-17T12:17:10.498Z,96231.99
2023-04-17T12:19:38.587Z,96234.61
2023-04-17T12:22:06.963Z,96234.98
2023-04-17T12:32:16.245Z,96219.80
2023-04-17T12:34:44.308Z,96220.33
2023-04-17T12:37:12.329Z,96219.56
2023-04-17T12:39:40.494Z,96217.23
2023-04-17T12:42:08.545Z,96210.27
2023-04-17T12:44:36.731Z,96217.23
2023-04-17T12:47:04.878Z,96214.06
2023-04-17T12:49:33.256Z,96210.39
2023-04-17T12:52:03.710Z,96212.65
2023-04-17T12:54:33.071Z,96208.70
2023-04-17T12:57:01.888Z,96207.00
2023-04-17T12:59:30.053Z,96209.53
2023-04-17T13:01:58.372Z,96206.13
2023-04-17T13:04:26.710Z,96201.02
2023-04-17T13:06:54.744Z,96200.33
2023-04-17T13:09:22.751Z,96198.36
2023-04-17T13:11:51.014Z,96202.61
2023-04-17T13:14:18.988Z,96206.13
2023-04-17T13:16:48.875Z,96201.34
2023-04-17T13:19:17.080Z,96200.44
2023-04-17T13:21:45.153Z,96202.58
2023-04-17T13:24:14.927Z,96197.63
2023-04-17T13:26:44.056Z,96194.40
2023-04-17T13:29:12.776Z,96194.92
2023-04-17T13:31:41.126Z,96197.53
2023-04-17T13:34:11.060Z,96197.33
2023-04-17T13:36:39.106Z,96192.38
2023-04-17T13:39:07.604Z,96196.40
2023-04-17T13:41:36.884Z,96198.36
2023-04-17T13:44:04.876Z,96198.27
2023-04-17T13:46:33.544Z,96193.82
2023-04-17T13:49:01.837Z,96196.11
2023-04-17T13:51:29.897Z,96194.68
2023-04-17T13:54:00.913Z,96198.33
2023-04-17T13:56:29.013Z,96200.13
2023-04-17T13:58:58.302Z,96202.38
2023-04-17T14:01:26.186Z,96202.33
2023-04-17T14:03:54.657Z,96203.48
2023-04-17T14:06:22.930Z,96203.19
2023-04-17T14:08:50.898Z,96204.38
2023-04-17T14:11:19.528Z,96208.55
2023-04-17T14:13:47.653Z,96212.23
2023-04-17T14:16:15.897Z,96209.53
2023-04-17T14:18:44.022Z,96210.48
2023-04-17T14:21:11.980Z,96208.17
2023-04-17T14:23:40.062Z,96213.86
2023-04-17T14:26:08.127Z,96218.58
2023-04-17T14:28:36.190Z,96218.86
2023-04-17T14:31:04.828Z,96220.30
2023-04-17T14:33:32.962Z,96217.60
2023-04-17T14:36:01.137Z,96214.53
2023-04-17T14:38:29.271Z,96216.95
2023-04-17T14:40:57.364Z,96219.64
2023-04-17T14:43:25.344Z,96218.49
2023-04-17T14:45:53.410Z,96220.02
2023-04-17T14:48:21.481Z,96227.42
2023-04-17T14:50:50.335Z,96236.95
2023-04-17T14:53:21.150Z,96241.84
2023-04-17T14:55:50.210Z,96242.34
2023-04-17T14:58:18.398Z,96237.56
2023-04-17T15:00:46.367Z,96240.26
2023-04-17T15:03:14.757Z,96239.70
2023-04-17T15:05:42.901Z,96241.92
2023-04-17T15:08:10.974Z,96235.23
2023-04-17T15:10:51.130Z,96232.54
2023-04-17T15:13:19.552Z,96226.30
2023-04-17T15:15:47.481Z,96227.10
2023-04-17T15:18:15.342Z,96230.65
2023-04-17T15:20:43.623Z,96229.42
2023-04-17T15:23:11.798Z,96239.48
2023-04-17T15:25:40.118Z,96253.59
2023-04-17T15:28:08.750Z,96263.60
2023-04-17T15:30:36.846Z,96266.91
2023-04-17T15:33:07.753Z,96274.06
2023-04-17T15:35:37.460Z,96277.38
2023-04-17T15:38:07.640Z,96280.85
2023-04-17T15:40:35.892Z,96283.54
2023-04-17T15:43:03.979Z,96285.25
2023-04-17T15:45:32.150Z,96284.96
2023-04-17T15:48:01.880Z,96282.08
2023-04-17T15:50:30.332Z,96284.52
2023-04-17T15:52:58.496Z,96284.06
2023-04-17T15:55:26.516Z,96286.67
2023-04-17T15:57:55.039Z,96283.03
2023-04-17T16:00:23.236Z,96281.73
2023-04-17T16:02:52.239Z,96288.19
2023-04-17T16:05:21.102Z,96285.37
2023-04-17T16:07:49.141Z,96282.95
2023-04-17T16:10:19.083Z,96286.86
2023-04-17T16:12:47.169Z,96296.65
2023-04-17T16:15:16.768Z,96294.48
2023-04-17T16:17:45.774Z,96301.63
2023-04-17T16:20:14.128Z,96306.29
2023-04-17T16:22:42.099Z,96309.02
2023-04-17T16:25:12.406Z,96308.77
2023-04-17T16:27:40.655Z,96309.23
2023-04-17T16:30:09.589Z,96305.27
2023-04-17T16:32:37.548Z,96304.60
2023-04-17T16:35:06.564Z,96303.13
2023-04-17T16:37:34.632Z,96301.13
2023-04-17T16:40:05.354Z,96301.41
2023-04-17T16:42:33.543Z,96300.01
2023-04-17T16:45:01.912Z,96296.09
2023-04-17T16:47:30.193Z,96297.52
2023-04-17T16:49:58.531Z,96304.75
2023-04-17T16:52:26.742Z,96305.40
2023-04-17T16:54:54.722Z,96306.95
2023-04-17T16:57:22.851Z,96309.37
2023-04-17T16:59:50.964Z,96307.02
2023-04-17T17:02:18.918Z,96311.80
2023-04-17T17:04:47.251Z,96310.17
2023-04-17T17:07:15.377Z,96309.98
2023-04-17T17:12:16.752Z,96311.54
2023-04-17T17:17:17.500Z,96317.14
2023-04-17T17:19:45.474Z,96320.27
2023-04-17T17:22:13.539Z,96319.41
2023-04-17T17:24:41.505Z,96324.67
2023-04-17T17:27:09.473Z,96324.84
2023-04-17T17:29:37.671Z,96327.45
2023-04-17T17:32:05.794Z,96325.48
2023-04-17T17:39:39.878Z,96335.14
2023-04-17T17:42:09.596Z,96336.37
2023-04-17T17:44:38.517Z,96340.95
2023-04-17T17:47:07.891Z,96342.28
2023-04-17T17:49:36.269Z,96341.86
2023-04-17T17:52:04.648Z,96341.66
2023-04-17T17:54:38.575Z,96344.39
2023-04-17T17:57:06.598Z,96346.95
2023-04-17T17:59:34.759Z,96348.83
2023-04-17T18:02:05.237Z,96355.27
2023-04-17T18:04:34.489Z,96359.14
2023-04-17T18:07:03.815Z,96365.58
2023-04-17T18:09:31.682Z,96368.58
2023-04-17T18:11:59.824Z,96368.85
2023-04-17T18:14:28.035Z,96365.05
2023-04-17T18:16:55.955Z,96367.26
2023-04-17T18:19:24.078Z,96366.63
2023-04-17T18:21:52.151Z,96368.64
2023-04-17T18:24:20.537Z,96372.48
2023-04-17T18:26:48.509Z,96370.50
2023-04-17T18:29:16.576Z,96372.63
2023-04-17T18:31:44.921Z,96376.13
2023-04-17T18:34:13.341Z,96374.66
2023-04-17T18:36:41.716Z,96378.09
2023-04-17T18:39:11.029Z,96378.25
2023-04-17T18:41:39.085Z,96380.37
2023-04-17T18:44:07.156Z,96380.04
2023-04-17T18:46:35.136Z,96378.08
2023-04-17T18:49:03.294Z,96377.63
2023-04-17T18:51:31.532Z,96377.16
2023-04-17T18:53:59.647Z,96378.81
2023-04-17T18:56:27.819Z,96381.91
2023-04-17T18:58:55.894Z,96384.14
2023-04-17T19:01:23.917Z,96383.86
2023-04-17T19:03:53.177Z,96384.70
2023-04-17T19:06:21.228Z,96388.54
2023-04-17T19:08:49.303Z,96388.61
2023-04-17T19:11:17.483Z,96395.55
2023-04-17T19:13:45.493Z,96396.36
2023-04-17T19:16:13.575Z,96396.77
2023-04-17T19:18:44.569Z,96398.08
2023-04-17T19:21:12.936Z,96399.79
2023-04-17T19:23:41.279Z,96399.33
2023-04-17T19:26:09.715Z,96396.23
2023-04-17T19:28:37.775Z,96399.84
2023-04-17T19:31:06.452Z,96404.21
2023-04-17T19:33:34.496Z,96404.08
2023-04-17T19:36:03.405Z,96405.63
2023-04-17T19:38:31.606Z,96406.04
2023-04-17T19:41:17.844Z,96409.22
2023-04-17T19:43:46.894Z,96410.63
2023-04-17T19:46:14.888Z,96407.61
2023-04-17T19:48:44.673Z,96410.37
2023-04-17T19:51:13.567Z,96407.79
2023-04-17T19:53:42.542Z,96408.38
2023-04-17T19:56:10.816Z,96407.17
2023-04-17T19:58:39.723Z,96404.44
2023-04-17T20:01:07.817Z,96406.39
2023-04-17T20:03:38.533Z,96402.95
2023-04-17T20:06:07.520Z,96403.73
2023-04-17T20:08:35.786Z,96400.95
2023-04-17T20:11:04.983Z,96403.48
2023-04-17T20:13:33.087Z,96404.42
2023-04-17T20:16:01.247Z,96405.56
2023-04-17T20:18:29.311Z,96402.13
2023-04-17T20:20:57.384Z,96398.29
2023-04-17T20:23:25.553Z,96400.13
2023-04-17T20:25:53.619Z,96398.63
2023-04-17T20:28:23.040Z,96397.45
2023-04-17T20:30:51.181Z,96402.64
2023-04-17T20:33:19.214Z,96403.94
2023-04-17T20:35:47.278Z,96402.45
2023-04-17T20:38:15.309Z,96407.48
2023-04-17T20:40:43.535Z,96404.17
2023-04-17T20:43:11.526Z,96408.00
2023-04-17T20:45:39.546Z,96410.20
2023-04-17T20:48:07.502Z,96409.45
2023-04-17T20:50:35.992Z,96411.73
2023-04-17T20:53:03.946Z,96418.66
2023-04-17T20:55:32.230Z,96419.31
2023-04-17T20:58:00.503Z,96421.84
2023-04-17T21:00:28.517Z,96420.00
2023-04-17T21:02:56.815Z,96421.86
2023-04-17T21:05:24.926Z,96421.90
2023-04-17T21:07:53.297Z,96418.48
2023-04-17T21:10:21.665Z,96418.17
2023-04-17T21:12:49.869Z,96416.87
2023-04-17T21:15:18.341Z,96416.20
2023-04-17T21:17:47.887Z,96417.92
2023-04-17T21:20:16.327Z,96421.27
2023-04-17T21:22:44.195Z,96422.77
2023-04-17T21:25:12.366Z,96421.58
2023-04-17T21:27:41.360Z,96426.31
2023-04-17T21:30:10.759Z,96420.00
2023-04-17T21:32:39.104Z,96425.02
2023-04-17T21:35:07.716Z,96428.69
2023-04-17T21:37:36.108Z,96431.39
2023-04-17T21:40:04.903Z,96431.49
2023-04-17T21:42:32.858Z,96429.81
2023-04-17T21:45:01.253Z,96429.20
2023-04-17T21:47:29.355Z,96428.30
2023-04-17T21:50:00.469Z,96426.95
2023-04-17T21:52:28.725Z,96424.38
2023-04-17T21:55:02.856Z,96422.73
2023-04-17T21:57:32.157Z,96425.99
2023-04-17T22:00:00.566Z,96427.66
2023-04-17T22:02:28.820Z,96425.23
2023-04-17T22:04:57.072Z,96427.11
2023-04-17T22:07:25.251Z,96426.40
2023-04-17T22:09:53.435Z,96428.07
2023-04-17T22:12:21.711Z,96426.59
2023-04-17T22:14:49.791Z,96427.20
2023-04-17T22:17:17.858Z,96427.52
2023-04-17T22:19:45.925Z,96430.01
2023-04-17T22:22:14.001Z,96432.04
2023-04-17T22:24:42.170Z,96430.36
2023-04-17T22:27:10.351Z,96431.16
2023-04-17T22:29:38.524Z,96431.92
2023-04-17T22:32:06.800Z,96429.89
2023-04-17T22:34:34.887Z,96431.19
2023-04-17T22:37:02.932Z,96428.52
2023-04-17T22:39:31.209Z,96428.29
2023-04-17T22:41:59.290Z,96428.39
2023-04-17T22:44:27.264Z,96428.80
2023-04-17T22:46:55.329Z,96428.38
2023-04-17T22:49:24.192Z,96429.72
2023-04-17T22:51:53.104Z,96430.28
2023-04-17T22:54:23.087Z,96431.95
2023-04-17T22:56:51.503Z,96432.42
2023-04-17T22:59:19.396Z,96428.46
2023-04-17T23:01:47.564Z,96429.20
2023-04-17T23:04:15.972Z,96435.27
2023-04-17T23:06:44.214Z,96436.08
2023-04-17T23:09:12.265Z,96433.13
2023-04-17T23:11:40.168Z,96429.30
2023-04-17T23:14:08.203Z,96428.17
2023-04-17T23:16:36.545Z,96429.52
2023-04-17T23:19:04.972Z,96428.71
2023-04-17T23:21:33.135Z,96433.39
2023-04-17T23:24:01.103Z,96433.59
2023-04-17T23:26:29.278Z,96434.89
2023-04-17T23:28:57.248Z,96430.88
2023-04-17T23:31:25.484Z,96431.89
2023-04-17T23:33:53.715Z,96429.92
2023-04-17T23:36:21.880Z,96428.53
2023-04-17T23:38:50.161Z,96429.59
2023-04-17T23:41:18.233Z,96426.60
2023-04-17T23:43:46.504Z,96431.11
2023-04-17T23:46:14.482Z,96433.67
2023-04-17T23:48:42.549Z,96430.08
2023-04-17T23:51:10.625Z,96430.18
2023-04-17T23:53:38.699Z,96428.56
2023-04-17T23:56:07.174Z,96426.31
2023-04-17T23:58:35.328Z,96422.70
